sensor_id;sensor_type;location;lat;lon;timestamp;pressure;altitude;pressure_sealevel;temperature;humidity
53340;BME280;46212;50.258;19.062;2023-11-22T00:00:43;98703.88;;;1.50;94.68
53340;BME280;46212;50.258;19.062;2023-11-22T00:03:09;98710.06;;;1.65;93.84
53340;BME280;46212;50.258;19.062;2023-11-22T00:05:34;98713.16;;;1.74;92.67
53340;BME280;46212;50.258;19.062;2023-11-22T00:08:00;98716.72;;;1.46;92.17
53340;BME280;46212;50.258;19.062;2023-11-22T00:10:26;98728.41;;;1.36;92.86
53340;BME280;46212;50.258;19.062;2023-11-22T00:12:51;98720.25;;;1.29;93.27
53340;BME280;46212;50.258;19.062;2023-11-22T00:15:16;98721.81;;;1.23;94.22
53340;BME280;46212;50.258;19.062;2023-11-22T00:17:46;98728.00;;;1.34;93.77
53340;BME280;46212;50.258;19.062;2023-11-22T00:20:11;98731.50;;;1.48;93.30
53340;BME280;46212;50.258;19.062;2023-11-22T00:22:37;98738.47;;;1.53;92.59
53340;BME280;46212;50.258;19.062;2023-11-22T00:25:03;98739.25;;;1.43;93.16
53340;BME280;46212;50.258;19.062;2023-11-22T00:27:29;98742.75;;;1.47;91.71
53340;BME280;46212;50.258;19.062;2023-11-22T00:29:58;98760.66;;;1.44;91.75
53340;BME280;46212;50.258;19.062;2023-11-22T00:32:23;98746.69;;;1.32;92.22
53340;BME280;46212;50.258;19.062;2023-11-22T00:34:49;98756.78;;;1.28;92.50
53340;BME280;46212;50.258;19.062;2023-11-22T00:37:14;98743.97;;;1.14;93.41
53340;BME280;46212;50.258;19.062;2023-11-22T00:39:40;98757.56;;;1.39;93.03
53340;BME280;46212;50.258;19.062;2023-11-22T00:42:07;98743.16;;;1.38;92.25
53340;BME280;46212;50.258;19.062;2023-11-22T00:44:32;98759.09;;;1.50;90.69
53340;BME280;46212;50.258;19.062;2023-11-22T00:46:58;98760.66;;;1.30;91.19
53340;BME280;46212;50.258;19.062;2023-11-22T00:49:23;98756.78;;;1.35;91.61
53340;BME280;46212;50.258;19.062;2023-11-22T00:51:49;98764.94;;;1.31;91.38
53340;BME280;46212;50.258;19.062;2023-11-22T00:54:16;98762.22;;;1.03;92.33
53340;BME280;46212;50.258;19.062;2023-11-22T00:56:41;98756.00;;;0.95;93.60
53340;BME280;46212;50.258;19.062;2023-11-22T00:59:16;98762.25;;;1.10;94.41
53340;BME280;46212;50.258;19.062;2023-11-22T01:01:41;98750.97;;;0.97;94.85
53340;BME280;46212;50.258;19.062;2023-11-22T01:04:07;98766.09;;;1.05;94.47
53340;BME280;46212;50.258;19.062;2023-11-22T01:06:33;98763.00;;;0.89;94.41
53340;BME280;46212;50.258;19.062;2023-11-22T01:08:58;98768.47;;;1.14;93.90
53340;BME280;46212;50.258;19.062;2023-11-22T01:11:24;98763.78;;;0.97;94.40
53340;BME280;46212;50.258;19.062;2023-11-22T01:13:51;98762.25;;;1.14;93.86
53340;BME280;46212;50.258;19.062;2023-11-22T01:16:16;98773.09;;;1.03;93.50
53340;BME280;46212;50.258;19.062;2023-11-22T01:18:42;98773.50;;;1.08;93.75
53340;BME280;46212;50.258;19.062;2023-11-22T01:21:08;98768.44;;;0.96;92.56
53340;BME280;46212;50.258;19.062;2023-11-22T01:23:34;98754.44;;;0.73;93.96
53340;BME280;46212;50.258;19.062;2023-11-22T01:26:00;98777.38;;;0.93;94.20
53340;BME280;46212;50.258;19.062;2023-11-22T01:28:26;98770.78;;;0.94;93.13
53340;BME280;46212;50.258;19.062;2023-11-22T01:30:53;98780.09;;;0.97;93.92
53340;BME280;46212;50.258;19.062;2023-11-22T01:33:20;98784.38;;;1.12;92.55
53340;BME280;46212;50.258;19.062;2023-11-22T01:35:45;98791.78;;;1.04;92.14
53340;BME280;46212;50.258;19.062;2023-11-22T01:38:11;98779.31;;;1.03;92.22
53340;BME280;46212;50.258;19.062;2023-11-22T01:40:43;98793.28;;;1.02;91.94
53340;BME280;46212;50.258;19.062;2023-11-22T01:43:13;98792.94;;;1.11;91.99
53340;BME280;46212;50.258;19.062;2023-11-22T01:45:38;98785.94;;;0.92;91.62
53340;BME280;46212;50.258;19.062;2023-11-22T01:48:04;98792.13;;;0.96;92.73
53340;BME280;46212;50.258;19.062;2023-11-22T01:50:29;98791.75;;;0.87;92.86
53340;BME280;46212;50.258;19.062;2023-11-22T01:52:55;98794.06;;;0.85;93.42
53340;BME280;46212;50.258;19.062;2023-11-22T01:55:21;98792.13;;;0.96;93.08
53340;BME280;46212;50.258;19.062;2023-11-22T01:57:46;98792.50;;;0.84;92.91
53340;BME280;46212;50.258;19.062;2023-11-22T02:00:12;98801.06;;;1.00;93.07
53340;BME280;46212;50.258;19.062;2023-11-22T02:02:40;98793.25;;;0.74;93.01
53340;BME280;46212;50.258;19.062;2023-11-22T02:05:06;98808.84;;;0.87;93.48
53340;BME280;46212;50.258;19.062;2023-11-22T02:07:31;98793.63;;;0.62;94.15
53340;BME280;46212;50.258;19.062;2023-11-22T02:09:58;98801.06;;;0.82;94.05
53340;BME280;46212;50.258;19.062;2023-11-22T02:12:23;98797.94;;;0.77;93.80
53340;BME280;46212;50.258;19.062;2023-11-22T02:14:48;98800.28;;;0.89;93.79
53340;BME280;46212;50.258;19.062;2023-11-22T02:17:15;98811.53;;;0.80;93.38
53340;BME280;46212;50.258;19.062;2023-11-22T02:19:42;98802.25;;;0.88;93.18
53340;BME280;46212;50.258;19.062;2023-11-22T02:22:07;98804.19;;;0.88;93.28
53340;BME280;46212;50.258;19.062;2023-11-22T02:24:33;98813.50;;;0.90;92.63
53340;BME280;46212;50.258;19.062;2023-11-22T02:26:59;98818.88;;;0.76;93.14
53340;BME280;46212;50.258;19.062;2023-11-22T02:29:25;98817.38;;;0.89;92.70
53340;BME280;46212;50.258;19.062;2023-11-22T02:31:50;98815.84;;;0.88;92.76
53340;BME280;46212;50.258;19.062;2023-11-22T02:34:16;98831.38;;;0.91;92.62
53340;BME280;46212;50.258;19.062;2023-11-22T02:36:44;98824.34;;;0.83;92.28
53340;BME280;46212;50.258;19.062;2023-11-22T02:39:10;98831.72;;;0.83;92.15
53340;BME280;46212;50.258;19.062;2023-11-22T02:41:35;98834.03;;;0.70;92.84
53340;BME280;46212;50.258;19.062;2023-11-22T02:44:01;98822.38;;;0.63;94.00
53340;BME280;46212;50.258;19.062;2023-11-22T02:46:26;98834.41;;;0.69;93.45
53340;BME280;46212;50.258;19.062;2023-11-22T02:48:52;98843.69;;;0.53;94.74
53340;BME280;46212;50.258;19.062;2023-11-22T02:51:19;98844.09;;;0.56;95.47
53340;BME280;46212;50.258;19.062;2023-11-22T02:53:46;98856.56;;;0.71;94.21
53340;BME280;46212;50.258;19.062;2023-11-22T02:56:14;98852.72;;;0.79;93.57
53340;BME280;46212;50.258;19.062;2023-11-22T02:58:40;98846.84;;;0.70;93.43
53340;BME280;46212;50.258;19.062;2023-11-22T03:01:06;98849.91;;;0.61;93.34
53340;BME280;46212;50.258;19.062;2023-11-22T03:03:32;98851.84;;;0.50;94.63
53340;BME280;46212;50.258;19.062;2023-11-22T03:05:58;98857.63;;;0.48;94.68
53340;BME280;46212;50.258;19.062;2023-11-22T03:08:23;98870.44;;;0.41;93.79
53340;BME280;46212;50.258;19.062;2023-11-22T03:10:49;98879.38;;;0.48;93.51
53340;BME280;46212;50.258;19.062;2023-11-22T03:13:16;98879.84;;;0.65;93.00
53340;BME280;46212;50.258;19.062;2023-11-22T03:15:42;98886.78;;;0.55;92.79
53340;BME280;46212;50.258;19.062;2023-11-22T03:18:08;98891.09;;;0.67;93.27
53340;BME280;46212;50.258;19.062;2023-11-22T03:20:33;98892.69;;;0.75;91.82
53340;BME280;46212;50.258;19.062;2023-11-22T03:22:59;98900.00;;;0.57;92.27
53340;BME280;46212;50.258;19.062;2023-11-22T03:25:25;98912.06;;;0.63;92.78
53340;BME280;46212;50.258;19.062;2023-11-22T03:27:50;98907.38;;;0.60;92.71
53340;BME280;46212;50.258;19.062;2023-11-22T03:30:17;98921.00;;;0.63;92.60
53340;BME280;46212;50.258;19.062;2023-11-22T03:32:42;98918.59;;;0.54;92.48
53340;BME280;46212;50.258;19.062;2023-11-22T03:35:09;98920.94;;;0.52;93.63
53340;BME280;46212;50.258;19.062;2023-11-22T03:37:35;98932.97;;;0.51;93.86
53340;BME280;46212;50.258;19.062;2023-11-22T03:40:00;98938.38;;;0.51;93.88
53340;BME280;46212;50.258;19.062;2023-11-22T03:42:26;98949.38;;;0.76;92.56
53340;BME280;46212;50.258;19.062;2023-11-22T03:44:55;98943.06;;;0.54;92.29
53340;BME280;46212;50.258;19.062;2023-11-22T03:47:20;98944.66;;;0.59;92.38
53340;BME280;46212;50.258;19.062;2023-11-22T03:49:46;98939.53;;;0.47;92.23
53340;BME280;46212;50.258;19.062;2023-11-22T03:52:11;98948.44;;;0.40;92.72
53340;BME280;46212;50.258;19.062;2023-11-22T03:54:38;98953.16;;;0.54;92.22
53340;BME280;46212;50.258;19.062;2023-11-22T03:57:04;98950.81;;;0.52;91.50
53340;BME280;46212;50.258;19.062;2023-11-22T03:59:30;98967.78;;;0.32;92.44
53340;BME280;46212;50.258;19.062;2023-11-22T04:01:55;98973.16;;;0.21;92.97
53340;BME280;46212;50.258;19.062;2023-11-22T04:04:21;98981.34;;;0.32;92.79
53340;BME280;46212;50.258;19.062;2023-11-22T04:06:46;98986.00;;;0.28;92.05
53340;BME280;46212;50.258;19.062;2023-11-22T04:09:12;98996.09;;;0.27;92.15
53340;BME280;46212;50.258;19.062;2023-11-22T04:11:42;98993.06;;;0.39;91.59
53340;BME280;46212;50.258;19.062;2023-11-22T04:14:07;99004.38;;;0.52;90.58
53340;BME280;46212;50.258;19.062;2023-11-22T04:16:33;99003.09;;;0.32;90.65
53340;BME280;46212;50.258;19.062;2023-11-22T04:18:58;99004.66;;;0.33;90.33
53340;BME280;46212;50.258;19.062;2023-11-22T04:21:24;98999.66;;;0.42;90.12
53340;BME280;46212;50.258;19.062;2023-11-22T04:23:49;99003.88;;;0.32;90.68
53340;BME280;46212;50.258;19.062;2023-11-22T04:26:15;99028.44;;;0.46;90.68
53340;BME280;46212;50.258;19.062;2023-11-22T04:28:41;99030.00;;;0.47;90.82
53340;BME280;46212;50.258;19.062;2023-11-22T04:31:07;99024.84;;;0.35;90.50
53340;BME280;46212;50.258;19.062;2023-11-22T04:33:34;99020.16;;;0.32;90.46
53340;BME280;46212;50.258;19.062;2023-11-22T04:35:59;99035.25;;;0.26;90.69
53340;BME280;46212;50.258;19.062;2023-11-22T04:38:26;99039.19;;;0.32;90.89
53340;BME280;46212;50.258;19.062;2023-11-22T04:40:51;99035.22;;;0.23;90.95
53340;BME280;46212;50.258;19.062;2023-11-22T04:43:16;99052.22;;;0.09;91.30
53340;BME280;46212;50.258;19.062;2023-11-22T04:45:42;99049.09;;;0.11;91.54
53340;BME280;46212;50.258;19.062;2023-11-22T04:48:08;99064.56;;;0.03;91.88
53340;BME280;46212;50.258;19.062;2023-11-22T04:50:33;99062.88;;;-0.09;92.42
53340;BME280;46212;50.258;19.062;2023-11-22T04:52:59;99073.09;;;0.05;92.38
53340;BME280;46212;50.258;19.062;2023-11-22T04:55:26;99080.94;;;0.14;92.39
53340;BME280;46212;50.258;19.062;2023-11-22T04:57:53;99079.03;;;0.18;90.40
53340;BME280;46212;50.258;19.062;2023-11-22T05:00:19;99078.72;;;-0.18;91.19
53340;BME280;46212;50.258;19.062;2023-11-22T05:02:44;99081.28;;;-0.28;91.94
53340;BME280;46212;50.258;19.062;2023-11-22T05:05:10;99088.38;;;-0.20;92.14
53340;BME280;46212;50.258;19.062;2023-11-22T05:07:36;99096.53;;;-0.20;92.57
53340;BME280;46212;50.258;19.062;2023-11-22T05:10:02;99102.13;;;-0.03;92.20
53340;BME280;46212;50.258;19.062;2023-11-22T05:12:28;99095.38;;;-0.19;92.93
53340;BME280;46212;50.258;19.062;2023-11-22T05:14:53;99109.63;;;-0.29;93.31
53340;BME280;46212;50.258;19.062;2023-11-22T05:17:19;99109.00;;;-0.12;93.53
53340;BME280;46212;50.258;19.062;2023-11-22T05:19:45;99103.66;;;-0.05;92.05
53340;BME280;46212;50.258;19.062;2023-11-22T05:22:10;99129.19;;;-0.13;92.22
53340;BME280;46212;50.258;19.062;2023-11-22T05:24:36;99117.34;;;0.06;92.49
53340;BME280;46212;50.258;19.062;2023-11-22T05:27:04;99116.63;;;0.12;91.51
53340;BME280;46212;50.258;19.062;2023-11-22T05:29:29;99132.19;;;-0.18;92.48
53340;BME280;46212;50.258;19.062;2023-11-22T05:31:54;99113.63;;;-0.16;92.98
53340;BME280;46212;50.258;19.062;2023-11-22T05:34:20;99128.72;;;-0.19;93.05
53340;BME280;46212;50.258;19.062;2023-11-22T05:36:46;99128.72;;;-0.19;92.97
53340;BME280;46212;50.258;19.062;2023-11-22T05:39:11;99128.47;;;-0.03;92.85
53340;BME280;46212;50.258;19.062;2023-11-22T05:41:37;99124.31;;;0.03;91.81
53340;BME280;46212;50.258;19.062;2023-11-22T05:44:03;99129.75;;;0.07;91.42
53340;BME280;46212;50.258;19.062;2023-11-22T05:46:29;99140.50;;;-0.04;91.29
53340;BME280;46212;50.258;19.062;2023-11-22T05:48:54;99141.84;;;0.13;91.55
53340;BME280;46212;50.258;19.062;2023-11-22T05:51:20;99150.94;;;-0.10;92.05
53340;BME280;46212;50.258;19.062;2023-11-22T05:53:46;99150.25;;;0.00;91.64
53340;BME280;46212;50.258;19.062;2023-11-22T05:56:11;99149.72;;;-0.12;91.48
53340;BME280;46212;50.258;19.062;2023-11-22T05:58:38;99145.78;;;-0.18;92.02
53340;BME280;46212;50.258;19.062;2023-11-22T06:01:07;99143.28;;;-0.34;92.61
53340;BME280;46212;50.258;19.062;2023-11-22T06:03:34;99156.22;;;-0.20;92.69
53340;BME280;46212;50.258;19.062;2023-11-22T06:06:00;99161.63;;;-0.24;91.85
53340;BME280;46212;50.258;19.062;2023-11-22T06:08:26;99172.72;;;-0.03;91.92
53340;BME280;46212;50.258;19.062;2023-11-22T06:10:51;99172.13;;;-0.22;91.74
53340;BME280;46212;50.258;19.062;2023-11-22T06:13:18;99184.56;;;-0.18;91.92
53340;BME280;46212;50.258;19.062;2023-11-22T06:15:44;99171.44;;;-0.45;91.83
53340;BME280;46212;50.258;19.062;2023-11-22T06:18:09;99171.88;;;-0.40;91.56
53340;BME280;46212;50.258;19.062;2023-11-22T06:20:35;99192.56;;;-0.32;91.51
53340;BME280;46212;50.258;19.062;2023-11-22T06:23:00;99198.34;;;-0.33;91.34
53340;BME280;46212;50.258;19.062;2023-11-22T06:25:25;99199.16;;;-0.29;91.48
53340;BME280;46212;50.258;19.062;2023-11-22T06:27:52;99202.81;;;-0.15;91.21
53340;BME280;46212;50.258;19.062;2023-11-22T06:30:17;99203.94;;;-0.19;91.39
53340;BME280;46212;50.258;19.062;2023-11-22T06:32:43;99192.66;;;-0.21;91.94
53340;BME280;46212;50.258;19.062;2023-11-22T06:35:09;99200.84;;;-0.18;91.52
53340;BME280;46212;50.258;19.062;2023-11-22T06:37:36;99212.44;;;-0.21;91.45
53340;BME280;46212;50.258;19.062;2023-11-22T06:40:02;99210.56;;;-0.17;91.06
53340;BME280;46212;50.258;19.062;2023-11-22T06:42:27;99218.81;;;-0.10;90.80
53340;BME280;46212;50.258;19.062;2023-11-22T06:44:53;99222.38;;;-0.02;90.77
53340;BME280;46212;50.258;19.062;2023-11-22T06:47:19;99216.00;;;-0.17;91.22
53340;BME280;46212;50.258;19.062;2023-11-22T06:49:44;99221.19;;;-0.05;90.90
53340;BME280;46212;50.258;19.062;2023-11-22T06:52:10;99216.53;;;-0.04;90.60
53340;BME280;46212;50.258;19.062;2023-11-22T06:54:35;99228.22;;;0.00;90.02
53340;BME280;46212;50.258;19.062;2023-11-22T06:57:02;99226.13;;;-0.14;89.98
53340;BME280;46212;50.258;19.062;2023-11-22T06:59:28;99229.63;;;-0.13;90.13
53340;BME280;46212;50.258;19.062;2023-11-22T07:01:54;99234.09;;;-0.24;90.49
53340;BME280;46212;50.258;19.062;2023-11-22T07:04:21;99229.53;;;-0.20;90.15
53340;BME280;46212;50.258;19.062;2023-11-22T07:06:46;99233.06;;;-0.16;89.99
53340;BME280;46212;50.258;19.062;2023-11-22T07:09:12;99241.56;;;-0.18;89.81
53340;BME280;46212;50.258;19.062;2023-11-22T07:11:38;99241.97;;;-0.16;89.63
53340;BME280;46212;50.258;19.062;2023-11-22T07:14:04;99251.13;;;-0.27;90.44
53340;BME280;46212;50.258;19.062;2023-11-22T07:16:30;99247.91;;;-0.07;90.33
53340;BME280;46212;50.258;19.062;2023-11-22T07:18:56;99258.41;;;-0.05;90.27
53340;BME280;46212;50.258;19.062;2023-11-22T07:21:22;99256.44;;;-0.08;90.01
53340;BME280;46212;50.258;19.062;2023-11-22T07:23:47;99266.13;;;-0.07;89.71
53340;BME280;46212;50.258;19.062;2023-11-22T07:26:12;99274.97;;;-0.14;89.48
53340;BME280;46212;50.258;19.062;2023-11-22T07:28:41;99276.22;;;-0.08;90.37
53340;BME280;46212;50.258;19.062;2023-11-22T07:31:07;99284.41;;;-0.04;89.98
53340;BME280;46212;50.258;19.062;2023-11-22T07:33:34;99277.13;;;-0.26;90.46
53340;BME280;46212;50.258;19.062;2023-11-22T07:36:00;99293.41;;;0.04;90.35
53340;BME280;46212;50.258;19.062;2023-11-22T07:38:25;99287.34;;;-0.16;91.17
53340;BME280;46212;50.258;19.062;2023-11-22T07:40:51;99296.88;;;0.00;91.04
53340;BME280;46212;50.258;19.062;2023-11-22T07:43:17;99294.00;;;0.20;89.52
53340;BME280;46212;50.258;19.062;2023-11-22T07:45:43;99301.78;;;0.21;88.98
53340;BME280;46212;50.258;19.062;2023-11-22T07:48:10;99306.44;;;0.21;87.52
53340;BME280;46212;50.258;19.062;2023-11-22T07:50:37;99300.31;;;-0.03;87.73
53340;BME280;46212;50.258;19.062;2023-11-22T07:53:04;99317.72;;;0.23;88.67
53340;BME280;46212;50.258;19.062;2023-11-22T07:55:30;99308.06;;;0.25;88.13
53340;BME280;46212;50.258;19.062;2023-11-22T07:57:55;99310.38;;;0.27;88.02
53340;BME280;46212;50.258;19.062;2023-11-22T08:00:23;99301.53;;;0.33;87.66
53340;BME280;46212;50.258;19.062;2023-11-22T08:02:48;99292.38;;;0.12;87.49
53340;BME280;46212;50.258;19.062;2023-11-22T08:05:15;99296.34;;;0.21;87.05
53340;BME280;46212;50.258;19.062;2023-11-22T08:07:41;99314.63;;;0.24;86.97
53340;BME280;46212;50.258;19.062;2023-11-22T08:10:09;99302.16;;;0.20;87.78
53340;BME280;46212;50.258;19.062;2023-11-22T08:12:42;99292.06;;;0.20;88.08
53340;BME280;46212;50.258;19.062;2023-11-22T08:15:10;99305.50;;;0.39;87.30
53340;BME280;46212;50.258;19.062;2023-11-22T08:17:38;99322.72;;;0.50;87.12
53340;BME280;46212;50.258;19.062;2023-11-22T08:20:03;99331.22;;;0.49;87.52
53340;BME280;46212;50.258;19.062;2023-11-22T08:22:31;99333.63;;;0.58;86.92
53340;BME280;46212;50.258;19.062;2023-11-22T08:25:04;99316.28;;;0.32;88.00
53340;BME280;46212;50.258;19.062;2023-11-22T08:27:30;99322.56;;;0.40;87.90
53340;BME280;46212;50.258;19.062;2023-11-22T08:29:56;99314.88;;;0.45;86.51
53340;BME280;46212;50.258;19.062;2023-11-22T08:32:21;99333.94;;;0.49;86.97
53340;BME280;46212;50.258;19.062;2023-11-22T08:34:51;99339.34;;;0.45;86.21
53340;BME280;46212;50.258;19.062;2023-11-22T08:37:17;99335.25;;;0.29;86.88
53340;BME280;46212;50.258;19.062;2023-11-22T08:39:42;99351.28;;;0.37;87.10
53340;BME280;46212;50.258;19.062;2023-11-22T08:42:08;99348.06;;;0.62;86.48
53340;BME280;46212;50.258;19.062;2023-11-22T08:44:37;99348.22;;;0.42;86.95
53340;BME280;46212;50.258;19.062;2023-11-22T08:47:03;99344.66;;;0.38;87.45
53340;BME280;46212;50.258;19.062;2023-11-22T08:49:29;99351.34;;;0.44;87.06
53340;BME280;46212;50.258;19.062;2023-11-22T08:51:56;99347.19;;;0.54;86.76
53340;BME280;46212;50.258;19.062;2023-11-22T08:54:21;99340.25;;;0.57;86.39
53340;BME280;46212;50.258;19.062;2023-11-22T08:56:47;99352.31;;;0.59;86.47
53340;BME280;46212;50.258;19.062;2023-11-22T08:59:12;99356.31;;;0.39;85.61
53340;BME280;46212;50.258;19.062;2023-11-22T09:01:38;99366.88;;;0.44;86.47
53340;BME280;46212;50.258;19.062;2023-11-22T09:04:03;99357.34;;;0.61;86.39
53340;BME280;46212;50.258;19.062;2023-11-22T09:06:29;99363.66;;;0.68;85.31
53340;BME280;46212;50.258;19.062;2023-11-22T09:08:55;99351.03;;;0.49;85.65
53340;BME280;46212;50.258;19.062;2023-11-22T09:11:21;99348.56;;;0.37;86.14
53340;BME280;46212;50.258;19.062;2023-11-22T09:13:48;99340.13;;;0.46;86.00
53340;BME280;46212;50.258;19.062;2023-11-22T09:16:15;99359.69;;;0.29;86.60
53340;BME280;46212;50.258;19.062;2023-11-22T09:18:42;99364.13;;;0.40;87.26
53340;BME280;46212;50.258;19.062;2023-11-22T09:21:08;99365.34;;;0.46;86.88
53340;BME280;46212;50.258;19.062;2023-11-22T09:23:35;99357.34;;;0.57;86.49
53340;BME280;46212;50.258;19.062;2023-11-22T09:26:02;99348.81;;;0.59;86.32
53340;BME280;46212;50.258;19.062;2023-11-22T09:28:28;99362.94;;;0.71;85.03
53340;BME280;46212;50.258;19.062;2023-11-22T09:30:53;99365.63;;;0.71;84.91
53340;BME280;46212;50.258;19.062;2023-11-22T09:33:19;99349.47;;;0.82;84.53
53340;BME280;46212;50.258;19.062;2023-11-22T09:35:46;99366.28;;;0.61;85.27
53340;BME280;46212;50.258;19.062;2023-11-22T09:38:12;99370.03;;;0.83;84.43
53340;BME280;46212;50.258;19.062;2023-11-22T09:40:48;99367.25;;;0.76;83.98
53340;BME280;46212;50.258;19.062;2023-11-22T09:43:15;99377.22;;;0.98;82.95
53340;BME280;46212;50.258;19.062;2023-11-22T09:45:44;99382.44;;;0.80;83.30
53340;BME280;46212;50.258;19.062;2023-11-22T09:48:20;99393.94;;;1.00;82.47
53340;BME280;46212;50.258;19.062;2023-11-22T09:56:03;99398.00;;;0.83;82.84
53340;BME280;46212;50.258;19.062;2023-11-22T09:58:30;99399.09;;;1.12;81.72
53340;BME280;46212;50.258;19.062;2023-11-22T10:00:59;99402.66;;;1.16;82.91
53340;BME280;46212;50.258;19.062;2023-11-22T10:03:25;99408.59;;;1.29;82.35
53340;BME280;46212;50.258;19.062;2023-11-22T10:05:51;99402.41;;;1.32;81.26
53340;BME280;46212;50.258;19.062;2023-11-22T10:08:17;99415.22;;;1.31;81.46
53340;BME280;46212;50.258;19.062;2023-11-22T10:10:44;99412.09;;;1.29;81.37
53340;BME280;46212;50.258;19.062;2023-11-22T10:13:13;99411.81;;;1.41;80.50
53340;BME280;46212;50.258;19.062;2023-11-22T10:15:38;99412.53;;;1.35;80.07
53340;BME280;46212;50.258;19.062;2023-11-22T10:18:04;99415.84;;;1.18;81.77
53340;BME280;46212;50.258;19.062;2023-11-22T10:20:39;99398.06;;;1.24;81.46
53340;BME280;46212;50.258;19.062;2023-11-22T10:23:12;99393.56;;;1.05;81.82
53340;BME280;46212;50.258;19.062;2023-11-22T10:25:45;99410.13;;;1.26;81.24
53340;BME280;46212;50.258;19.062;2023-11-22T10:28:13;99408.38;;;1.08;80.93
53340;BME280;46212;50.258;19.062;2023-11-22T10:30:38;99401.06;;;1.15;80.42
53340;BME280;46212;50.258;19.062;2023-11-22T10:33:06;99399.22;;;1.23;81.22
53340;BME280;46212;50.258;19.062;2023-11-22T10:35:31;99398.19;;;1.38;80.00
53340;BME280;46212;50.258;19.062;2023-11-22T10:37:59;99400.19;;;1.44;79.63
53340;BME280;46212;50.258;19.062;2023-11-22T10:40:24;99388.91;;;1.42;79.52
53340;BME280;46212;50.258;19.062;2023-11-22T10:42:50;99375.38;;;1.09;80.72
53340;BME280;46212;50.258;19.062;2023-11-22T10:45:17;99384.81;;;1.22;81.38
53340;BME280;46212;50.258;19.062;2023-11-22T10:47:43;99389.03;;;1.16;80.97
53340;BME280;46212;50.258;19.062;2023-11-22T10:50:09;99390.63;;;1.21;80.65
53340;BME280;46212;50.258;19.062;2023-11-22T10:52:40;99392.91;;;1.15;81.05
53340;BME280;46212;50.258;19.062;2023-11-22T10:55:06;99398.56;;;0.99;82.73
53340;BME280;46212;50.258;19.062;2023-11-22T10:57:36;99390.50;;;1.06;81.99
53340;BME280;46212;50.258;19.062;2023-11-22T11:00:05;99401.97;;;1.26;81.30
53340;BME280;46212;50.258;19.062;2023-11-22T11:02:44;99396.91;;;0.88;81.82
53340;BME280;46212;50.258;19.062;2023-11-22T11:05:33;99404.03;;;0.99;82.73
53340;BME280;46212;50.258;19.062;2023-11-22T11:08:05;99400.34;;;1.22;81.67
53340;BME280;46212;50.258;19.062;2023-11-22T11:10:41;99404.25;;;1.24;80.56
53340;BME280;46212;50.258;19.062;2023-11-22T11:13:07;99407.69;;;1.18;80.38
53340;BME280;46212;50.258;19.062;2023-11-22T11:15:34;99409.59;;;1.10;81.03
53340;BME280;46212;50.258;19.062;2023-11-22T11:18:01;99433.44;;;1.24;81.42
53340;BME280;46212;50.258;19.062;2023-11-22T11:20:32;99440.94;;;1.37;80.84
53340;BME280;46212;50.258;19.062;2023-11-22T11:22:58;99440.84;;;1.27;78.92
53340;BME280;46212;50.258;19.062;2023-11-22T11:25:24;99432.31;;;1.28;79.08
53340;BME280;46212;50.258;19.062;2023-11-22T11:27:56;99441.47;;;1.13;79.76
53340;BME280;46212;50.258;19.062;2023-11-22T11:30:45;99456.59;;;1.11;79.09
53340;BME280;46212;50.258;19.062;2023-11-22T11:33:18;99446.38;;;1.00;79.38
53340;BME280;46212;50.258;19.062;2023-11-22T11:35:48;99432.41;;;1.02;79.04
53340;BME280;46212;50.258;19.062;2023-11-22T11:38:16;99453.41;;;1.05;79.62
53340;BME280;46212;50.258;19.062;2023-11-22T11:40:48;99450.88;;;1.19;79.28
53340;BME280;46212;50.258;19.062;2023-11-22T11:43:14;99461.63;;;1.08;79.66
53340;BME280;46212;50.258;19.062;2023-11-22T11:45:41;99448.97;;;0.90;79.73
53340;BME280;46212;50.258;19.062;2023-11-22T11:48:16;99446.09;;;0.76;80.66
53340;BME280;46212;50.258;19.062;2023-11-22T11:50:42;99440.72;;;0.79;80.65
53340;BME280;46212;50.258;19.062;2023-11-22T11:53:09;99449.16;;;1.04;79.95
53340;BME280;46212;50.258;19.062;2023-11-22T11:55:35;99449.94;;;1.04;79.55
53340;BME280;46212;50.258;19.062;2023-11-22T11:58:07;99442.22;;;0.77;80.47
53340;BME280;46212;50.258;19.062;2023-11-22T12:00:35;99442.09;;;0.99;79.64
53340;BME280;46212;50.258;19.062;2023-11-22T12:03:04;99437.50;;;0.74;80.38
53340;BME280;46212;50.258;19.062;2023-11-22T12:05:30;99437.94;;;0.76;80.65
53340;BME280;46212;50.258;19.062;2023-11-22T12:07:55;99437.47;;;0.70;81.07
53340;BME280;46212;50.258;19.062;2023-11-22T12:10:21;99448.03;;;0.75;81.01
53340;BME280;46212;50.258;19.062;2023-11-22T12:12:47;99444.97;;;0.80;81.21
53340;BME280;46212;50.258;19.062;2023-11-22T12:15:12;99443.44;;;0.79;80.88
53340;BME280;46212;50.258;19.062;2023-11-22T12:17:39;99448.31;;;1.00;80.28
53340;BME280;46212;50.258;19.062;2023-11-22T12:20:13;99437.69;;;0.88;80.61
53340;BME280;46212;50.258;19.062;2023-11-22T12:22:40;99433.09;;;0.92;80.46
53340;BME280;46212;50.258;19.062;2023-11-22T12:25:07;99433.41;;;0.87;80.70
53340;BME280;46212;50.258;19.062;2023-11-22T12:27:32;99442.38;;;0.91;81.00
53340;BME280;46212;50.258;19.062;2023-11-22T12:29:58;99441.50;;;1.17;79.43
53340;BME280;46212;50.258;19.062;2023-11-22T12:32:24;99455.72;;;1.03;78.96
53340;BME280;46212;50.258;19.062;2023-11-22T12:34:50;99467.47;;;0.77;79.05
53340;BME280;46212;50.258;19.062;2023-11-22T12:37:20;99462.47;;;0.83;79.94
53340;BME280;46212;50.258;19.062;2023-11-22T12:39:47;99476.16;;;0.90;80.08
53340;BME280;46212;50.258;19.062;2023-11-22T12:42:13;99478.84;;;1.20;78.14
53340;BME280;46212;50.258;19.062;2023-11-22T12:44:51;99468.47;;;0.95;79.32
53340;BME280;46212;50.258;19.062;2023-11-22T12:47:35;99481.09;;;0.81;79.67
53340;BME280;46212;50.258;19.062;2023-11-22T12:50:01;99471.50;;;0.90;79.68
53340;BME280;46212;50.258;19.062;2023-11-22T12:52:29;99471.84;;;0.85;79.56
53340;BME280;46212;50.258;19.062;2023-11-22T12:54:55;99470.63;;;0.79;80.51
53340;BME280;46212;50.258;19.062;2023-11-22T12:57:20;99461.81;;;0.93;80.36
53340;BME280;46212;50.258;19.062;2023-11-22T12:59:47;99450.69;;;1.05;80.40